sensor_id;sensor_type;location;lat;lon;timestamp;temperature;humidity
9881;DHT22;4979;51.014;6.678;2023-08-17T00:01:50;20.00;99.90
9881;DHT22;4979;51.014;6.678;2023-08-17T00:04:16;20.10;99.90
9881;DHT22;4979;51.014;6.678;2023-08-17T00:06:42;20.10;99.90
9881;DHT22;4979;51.014;6.678;2023-08-17T00:09:08;20.00;99.90
9881;DHT22;4979;51.014;6.678;2023-08-17T00:11:34;20.00;99.90
9881;DHT22;4979;51.014;6.678;2023-08-17T00:14:00;19.80;99.90
9881;DHT22;4979;51.014;6.678;2023-08-17T00:16:25;19.80;99.90
9881;DHT22;4979;51.014;6.678;2023-08-17T00:18:51;19.80;99.90
9881;DHT22;4979;51.014;6.678;2023-08-17T00:21:17;19.70;99.90
9881;DHT22;4979;51.014;6.678;2023-08-17T00:23:43;19.80;99.90
9881;DHT22;4979;51.014;6.678;2023-08-17T00:26:08;19.80;99.90
9881;DHT22;4979;51.014;6.678;2023-08-17T00:28:34;19.90;99.90
9881;DHT22;4979;51.014;6.678;2023-08-17T00:31:00;19.80;99.90
9881;DHT22;4979;51.014;6.678;2023-08-17T00:33:26;19.70;99.90
9881;DHT22;4979;51.014;6.678;2023-08-17T00:35:51;19.70;99.90
9881;DHT22;4979;51.014;6.678;2023-08-17T00:38:17;19.60;99.90
9881;DHT22;4979;51.014;6.678;2023-08-17T00:40:43;19.70;99.90
9881;DHT22;4979;51.014;6.678;2023-08-17T00:43:09;19.60;99.90
9881;DHT22;4979;51.014;6.678;2023-08-17T00:45:35;19.60;99.90
9881;DHT22;4979;51.014;6.678;2023-08-17T00:48:00;19.60;99.90
9881;DHT22;4979;51.014;6.678;2023-08-17T00:50:27;19.60;99.90
9881;DHT22;4979;51.014;6.678;2023-08-17T00:52:54;19.50;99.90
9881;DHT22;4979;51.014;6.678;2023-08-17T00:55:20;19.50;99.90
9881;DHT22;4979;51.014;6.678;2023-08-17T00:57:46;19.50;99.90
9881;DHT22;4979;51.014;6.678;2023-08-17T01:00:13;19.50;99.90
9881;DHT22;4979;51.014;6.678;2023-08-17T01:02:41;19.50;99.90
9881;DHT22;4979;51.014;6.678;2023-08-17T01:05:07;19.40;99.90
9881;DHT22;4979;51.014;6.678;2023-08-17T01:07:32;19.40;99.90
9881;DHT22;4979;51.014;6.678;2023-08-17T01:09:58;19.50;99.90
9881;DHT22;4979;51.014;6.678;2023-08-17T01:12:32;19.40;99.90
9881;DHT22;4979;51.014;6.678;2023-08-17T01:15:21;19.40;99.90
9881;DHT22;4979;51.014;6.678;2023-08-17T01:17:54;19.50;99.90
9881;DHT22;4979;51.014;6.678;2023-08-17T01:20:23;19.40;99.90
9881;DHT22;4979;51.014;6.678;2023-08-17T01:22:50;19.50;99.90
9881;DHT22;4979;51.014;6.678;2023-08-17T01:25:16;19.50;99.90
9881;DHT22;4979;51.014;6.678;2023-08-17T01:27:43;19.50;99.90
9881;DHT22;4979;51.014;6.678;2023-08-17T01:30:11;19.50;99.90
9881;DHT22;4979;51.014;6.678;2023-08-17T01:32:50;19.50;99.90
9881;DHT22;4979;51.014;6.678;2023-08-17T01:35:30;19.30;99.90
9881;DHT22;4979;51.014;6.678;2023-08-17T01:37:59;19.50;99.90
9881;DHT22;4979;51.014;6.678;2023-08-17T01:40:29;19.50;99.90
9881;DHT22;4979;51.014;6.678;2023-08-17T01:42:57;19.40;99.90
9881;DHT22;4979;51.014;6.678;2023-08-17T01:45:24;19.40;99.90
9881;DHT22;4979;51.014;6.678;2023-08-17T01:47:49;19.40;99.90
9881;DHT22;4979;51.014;6.678;2023-08-17T01:50:15;19.50;99.90
9881;DHT22;4979;51.014;6.678;2023-08-17T01:52:41;19.40;99.90
9881;DHT22;4979;51.014;6.678;2023-08-17T01:55:06;19.40;99.90
9881;DHT22;4979;51.014;6.678;2023-08-17T01:57:32;19.40;99.90
9881;DHT22;4979;51.014;6.678;2023-08-17T02:00:00;19.30;99.90
9881;DHT22;4979;51.014;6.678;2023-08-17T02:02:25;19.30;99.90
9881;DHT22;4979;51.014;6.678;2023-08-17T02:04:51;19.30;99.90
9881;DHT22;4979;51.014;6.678;2023-08-17T02:07:16;19.40;99.90
9881;DHT22;4979;51.014;6.678;2023-08-17T02:09:42;19.40;99.90
9881;DHT22;4979;51.014;6.678;2023-08-17T02:12:07;19.30;99.90
9881;DHT22;4979;51.014;6.678;2023-08-17T02:14:33;19.40;99.90
9881;DHT22;4979;51.014;6.678;2023-08-17T02:16:59;19.30;99.90
9881;DHT22;4979;51.014;6.678;2023-08-17T02:19:24;19.20;99.90
9881;DHT22;4979;51.014;6.678;2023-08-17T02:21:51;19.30;99.90
9881;DHT22;4979;51.014;6.678;2023-08-17T02:24:16;19.30;99.90
9881;DHT22;4979;51.014;6.678;2023-08-17T02:26:42;19.30;99.90
9881;DHT22;4979;51.014;6.678;2023-08-17T02:29:07;19.20;99.90
9881;DHT22;4979;51.014;6.678;2023-08-17T02:31:33;19.30;99.90
9881;DHT22;4979;51.014;6.678;2023-08-17T02:33:58;19.40;99.90
9881;DHT22;4979;51.014;6.678;2023-08-17T02:36:30;19.40;99.90
9881;DHT22;4979;51.014;6.678;2023-08-17T02:38:55;19.30;99.90
9881;DHT22;4979;51.014;6.678;2023-08-17T02:41:21;19.30;99.90
9881;DHT22;4979;51.014;6.678;2023-08-17T02:43:47;19.40;99.90
9881;DHT22;4979;51.014;6.678;2023-08-17T02:46:12;19.50;99.90
9881;DHT22;4979;51.014;6.678;2023-08-17T02:48:38;19.40;99.90
9881;DHT22;4979;51.014;6.678;2023-08-17T02:51:03;19.40;99.90
9881;DHT22;4979;51.014;6.678;2023-08-17T02:53:29;19.50;99.90
9881;DHT22;4979;51.014;6.678;2023-08-17T02:55:54;19.40;99.90
9881;DHT22;4979;51.014;6.678;2023-08-17T02:58:20;19.30;99.90
9881;DHT22;4979;51.014;6.678;2023-08-17T03:00:45;19.40;99.90
9881;DHT22;4979;51.014;6.678;2023-08-17T03:03:11;19.40;99.90
9881;DHT22;4979;51.014;6.678;2023-08-17T03:05:37;19.50;99.90
9881;DHT22;4979;51.014;6.678;2023-08-17T03:08:03;19.40;99.90
9881;DHT22;4979;51.014;6.678;2023-08-17T03:10:29;19.40;99.90
9881;DHT22;4979;51.014;6.678;2023-08-17T03:12:55;19.40;99.90
9881;DHT22;4979;51.014;6.678;2023-08-17T03:15:20;19.30;99.90
9881;DHT22;4979;51.014;6.678;2023-08-17T03:17:46;19.40;99.90
9881;DHT22;4979;51.014;6.678;2023-08-17T03:20:11;19.40;99.90
9881;DHT22;4979;51.014;6.678;2023-08-17T03:22:37;19.40;99.90
9881;DHT22;4979;51.014;6.678;2023-08-17T03:25:02;19.40;99.90
9881;DHT22;4979;51.014;6.678;2023-08-17T03:27:29;19.30;99.90
9881;DHT22;4979;51.014;6.678;2023-08-17T03:29:54;19.30;99.90
9881;DHT22;4979;51.014;6.678;2023-08-17T03:32:20;19.20;99.90
9881;DHT22;4979;51.014;6.678;2023-08-17T03:34:45;19.20;99.90
9881;DHT22;4979;51.014;6.678;2023-08-17T03:37:11;19.10;99.90
9881;DHT22;4979;51.014;6.678;2023-08-17T03:39:37;19.10;99.90
9881;DHT22;4979;51.014;6.678;2023-08-17T03:42:02;19.10;99.90
9881;DHT22;4979;51.014;6.678;2023-08-17T03:44:28;19.00;99.90
9881;DHT22;4979;51.014;6.678;2023-08-17T03:46:53;22.00;99.90
9881;DHT22;4979;51.014;6.678;2023-08-17T03:49:19;19.00;99.90
9881;DHT22;4979;51.014;6.678;2023-08-17T03:51:45;19.00;99.90
9881;DHT22;4979;51.014;6.678;2023-08-17T03:54:12;19.00;99.90
9881;DHT22;4979;51.014;6.678;2023-08-17T03:56:37;19.10;99.90
9881;DHT22;4979;51.014;6.678;2023-08-17T03:59:03;19.10;99.90
9881;DHT22;4979;51.014;6.678;2023-08-17T04:01:29;19.00;99.90
9881;DHT22;4979;51.014;6.678;2023-08-17T04:03:55;19.00;99.90
9881;DHT22;4979;51.014;6.678;2023-08-17T04:06:20;19.00;99.90
9881;DHT22;4979;51.014;6.678;2023-08-17T04:08:46;17.50;99.90
9881;DHT22;4979;51.014;6.678;2023-08-17T04:11:12;19.10;99.90
9881;DHT22;4979;51.014;6.678;2023-08-17T04:13:37;19.00;99.90
9881;DHT22;4979;51.014;6.678;2023-08-17T04:16:03;18.90;99.90
9881;DHT22;4979;51.014;6.678;2023-08-17T04:18:28;18.90;99.90
9881;DHT22;4979;51.014;6.678;2023-08-17T04:20:54;19.00;99.90
9881;DHT22;4979;51.014;6.678;2023-08-17T04:23:19;18.90;99.90
9881;DHT22;4979;51.014;6.678;2023-08-17T04:25:46;18.80;99.90
9881;DHT22;4979;51.014;6.678;2023-08-17T04:28:12;18.90;99.90
9881;DHT22;4979;51.014;6.678;2023-08-17T04:30:38;18.80;99.90
9881;DHT22;4979;51.014;6.678;2023-08-17T04:33:04;18.90;99.90
9881;DHT22;4979;51.014;6.678;2023-08-17T04:35:30;18.80;99.90
9881;DHT22;4979;51.014;6.678;2023-08-17T04:37:55;18.80;99.90
9881;DHT22;4979;51.014;6.678;2023-08-17T04:40:21;18.70;99.90
9881;DHT22;4979;51.014;6.678;2023-08-17T04:42:46;18.70;99.90
9881;DHT22;4979;51.014;6.678;2023-08-17T04:45:12;18.70;99.90
9881;DHT22;4979;51.014;6.678;2023-08-17T04:47:38;18.80;99.90
9881;DHT22;4979;51.014;6.678;2023-08-17T04:50:05;18.70;99.90
9881;DHT22;4979;51.014;6.678;2023-08-17T04:52:30;18.70;99.90
9881;DHT22;4979;51.014;6.678;2023-08-17T04:54:56;18.70;99.90
9881;DHT22;4979;51.014;6.678;2023-08-17T04:57:21;18.70;99.90
9881;DHT22;4979;51.014;6.678;2023-08-17T04:59:47;18.80;99.90
9881;DHT22;4979;51.014;6.678;2023-08-17T05:02:13;18.80;99.90
9881;DHT22;4979;51.014;6.678;2023-08-17T05:04:38;18.70;99.90
9881;DHT22;4979;51.014;6.678;2023-08-17T05:07:05;18.70;99.90
9881;DHT22;4979;51.014;6.678;2023-08-17T05:09:31;18.80;99.90
9881;DHT22;4979;51.014;6.678;2023-08-17T05:11:56;18.90;99.90
9881;DHT22;4979;51.014;6.678;2023-08-17T05:14:22;18.80;99.90
9881;DHT22;4979;51.014;6.678;2023-08-17T05:16:48;18.90;99.90
9881;DHT22;4979;51.014;6.678;2023-08-17T05:19:13;18.90;99.90
9881;DHT22;4979;51.014;6.678;2023-08-17T05:21:39;18.80;99.90
9881;DHT22;4979;51.014;6.678;2023-08-17T05:24:04;18.80;99.90
9881;DHT22;4979;51.014;6.678;2023-08-17T05:26:30;18.90;99.90
9881;DHT22;4979;51.014;6.678;2023-08-17T05:28:56;18.80;99.90
9881;DHT22;4979;51.014;6.678;2023-08-17T05:31:21;18.80;99.90
9881;DHT22;4979;51.014;6.678;2023-08-17T05:33:47;18.80;99.90
9881;DHT22;4979;51.014;6.678;2023-08-17T05:36:12;18.90;99.90
9881;DHT22;4979;51.014;6.678;2023-08-17T05:38:38;18.90;99.90
9881;DHT22;4979;51.014;6.678;2023-08-17T05:41:04;18.90;99.90
9881;DHT22;4979;51.014;6.678;2023-08-17T05:43:29;19.00;99.90
9881;DHT22;4979;51.014;6.678;2023-08-17T05:45:57;19.10;99.90
9881;DHT22;4979;51.014;6.678;2023-08-17T05:48:24;18.90;99.90
9881;DHT22;4979;51.014;6.678;2023-08-17T05:50:50;19.00;99.90
9881;DHT22;4979;51.014;6.678;2023-08-17T05:53:16;19.20;99.90
9881;DHT22;4979;51.014;6.678;2023-08-17T05:55:41;19.10;99.90
9881;DHT22;4979;51.014;6.678;2023-08-17T05:58:07;19.10;99.90
9881;DHT22;4979;51.014;6.678;2023-08-17T06:00:32;19.20;99.90
9881;DHT22;4979;51.014;6.678;2023-08-17T06:02:58;19.20;99.90
9881;DHT22;4979;51.014;6.678;2023-08-17T06:05:29;19.20;99.90
9881;DHT22;4979;51.014;6.678;2023-08-17T06:07:59;19.20;99.90
9881;DHT22;4979;51.014;6.678;2023-08-17T06:10:25;19.30;99.90
9881;DHT22;4979;51.014;6.678;2023-08-17T06:12:57;19.30;99.90
9881;DHT22;4979;51.014;6.678;2023-08-17T06:15:23;19.30;99.90
9881;DHT22;4979;51.014;6.678;2023-08-17T06:17:49;19.20;99.90
9881;DHT22;4979;51.014;6.678;2023-08-17T06:20:18;19.20;99.90
9881;DHT22;4979;51.014;6.678;2023-08-17T06:22:44;19.30;99.90
9881;DHT22;4979;51.014;6.678;2023-08-17T06:25:09;19.30;99.90
9881;DHT22;4979;51.014;6.678;2023-08-17T06:27:35;19.40;99.90
9881;DHT22;4979;51.014;6.678;2023-08-17T06:30:02;19.50;99.90
9881;DHT22;4979;51.014;6.678;2023-08-17T06:32:29;19.60;99.90
9881;DHT22;4979;51.014;6.678;2023-08-17T06:34:54;19.60;99.90
9881;DHT22;4979;51.014;6.678;2023-08-17T06:37:20;19.70;99.90
9881;DHT22;4979;51.014;6.678;2023-08-17T06:39:46;19.70;99.90
9881;DHT22;4979;51.014;6.678;2023-08-17T06:42:11;19.80;99.90
9881;DHT22;4979;51.014;6.678;2023-08-17T06:44:37;19.80;99.90
9881;DHT22;4979;51.014;6.678;2023-08-17T06:47:03;19.80;99.90
9881;DHT22;4979;51.014;6.678;2023-08-17T06:49:28;19.80;99.90
9881;DHT22;4979;51.014;6.678;2023-08-17T06:51:54;19.80;99.90
9881;DHT22;4979;51.014;6.678;2023-08-17T06:54:19;19.90;99.90
9881;DHT22;4979;51.014;6.678;2023-08-17T06:56:45;19.90;99.90
9881;DHT22;4979;51.014;6.678;2023-08-17T06:59:11;20.30;99.90
9881;DHT22;4979;51.014;6.678;2023-08-17T07:01:36;20.30;99.90
9881;DHT22;4979;51.014;6.678;2023-08-17T07:04:02;20.00;99.90
9881;DHT22;4979;51.014;6.678;2023-08-17T07:06:27;20.00;99.90
9881;DHT22;4979;51.014;6.678;2023-08-17T07:08:54;20.10;99.90
9881;DHT22;4979;51.014;6.678;2023-08-17T07:11:20;20.20;99.90
9881;DHT22;4979;51.014;6.678;2023-08-17T07:13:45;20.20;99.90
9881;DHT22;4979;51.014;6.678;2023-08-17T07:16:11;20.30;99.90
9881;DHT22;4979;51.014;6.678;2023-08-17T07:18:37;20.30;99.90
9881;DHT22;4979;51.014;6.678;2023-08-17T07:21:03;20.40;99.90
9881;DHT22;4979;51.014;6.678;2023-08-17T07:23:28;20.40;99.90
9881;DHT22;4979;51.014;6.678;2023-08-17T07:25:54;20.40;99.90
9881;DHT22;4979;51.014;6.678;2023-08-17T07:28:19;20.40;99.90
9881;DHT22;4979;51.014;6.678;2023-08-17T07:30:45;20.50;99.90
9881;DHT22;4979;51.014;6.678;2023-08-17T07:33:10;20.40;99.90
9881;DHT22;4979;51.014;6.678;2023-08-17T07:35:36;20.60;99.90
9881;DHT22;4979;51.014;6.678;2023-08-17T07:38:01;20.60;99.90
9881;DHT22;4979;51.014;6.678;2023-08-17T07:40:27;20.70;99.90
9881;DHT22;4979;51.014;6.678;2023-08-17T07:42:53;20.70;99.90
9881;DHT22;4979;51.014;6.678;2023-08-17T07:45:18;20.70;99.90
9881;DHT22;4979;51.014;6.678;2023-08-17T07:47:44;20.60;99.90
9881;DHT22;4979;51.014;6.678;2023-08-17T07:50:10;20.60;99.90
9881;DHT22;4979;51.014;6.678;2023-08-17T07:52:35;20.70;99.90
9881;DHT22;4979;51.014;6.678;2023-08-17T07:55:01;20.70;99.90
9881;DHT22;4979;51.014;6.678;2023-08-17T07:57:26;20.70;99.90
9881;DHT22;4979;51.014;6.678;2023-08-17T07:59:52;20.80;99.90
9881;DHT22;4979;51.014;6.678;2023-08-17T08:02:19;20.90;99.90
9881;DHT22;4979;51.014;6.678;2023-08-17T08:04:44;21.00;99.90
9881;DHT22;4979;51.014;6.678;2023-08-17T08:07:10;21.10;99.90
9881;DHT22;4979;51.014;6.678;2023-08-17T08:09:36;21.00;99.90
9881;DHT22;4979;51.014;6.678;2023-08-17T08:12:02;21.00;99.90
9881;DHT22;4979;51.014;6.678;2023-08-17T08:14:28;21.00;99.90
9881;DHT22;4979;51.014;6.678;2023-08-17T08:16:54;20.90;99.90
9881;DHT22;4979;51.014;6.678;2023-08-17T08:19:20;20.90;99.90
9881;DHT22;4979;51.014;6.678;2023-08-17T08:21:46;21.00;99.90
9881;DHT22;4979;51.014;6.678;2023-08-17T08:24:11;21.00;99.90
9881;DHT22;4979;51.014;6.678;2023-08-17T08:26:37;21.10;99.90
9881;DHT22;4979;51.014;6.678;2023-08-17T08:29:02;21.10;99.90
9881;DHT22;4979;51.014;6.678;2023-08-17T08:31:28;21.10;99.90
9881;DHT22;4979;51.014;6.678;2023-08-17T08:33:53;21.00;99.90
9881;DHT22;4979;51.014;6.678;2023-08-17T08:36:20;21.10;99.90
9881;DHT22;4979;51.014;6.678;2023-08-17T08:38:45;21.30;99.90
9881;DHT22;4979;51.014;6.678;2023-08-17T08:41:11;21.30;99.90
9881;DHT22;4979;51.014;6.678;2023-08-17T08:43:38;21.50;99.90
9881;DHT22;4979;51.014;6.678;2023-08-17T08:46:04;21.50;99.90
9881;DHT22;4979;51.014;6.678;2023-08-17T08:48:31;21.60;99.90
9881;DHT22;4979;51.014;6.678;2023-08-17T08:50:59;21.60;99.90
9881;DHT22;4979;51.014;6.678;2023-08-17T08:53:34;21.70;99.90
9881;DHT22;4979;51.014;6.678;2023-08-17T08:56:03;21.80;99.90
9881;DHT22;4979;51.014;6.678;2023-08-17T08:58:29;21.60;99.90
9881;DHT22;4979;51.014;6.678;2023-08-17T09:00:57;21.50;99.90
9881;DHT22;4979;51.014;6.678;2023-08-17T09:03:24;21.50;99.90
9881;DHT22;4979;51.014;6.678;2023-08-17T09:05:50;21.50;99.90
9881;DHT22;4979;51.014;6.678;2023-08-17T09:08:21;21.60;99.90
9881;DHT22;4979;51.014;6.678;2023-08-17T09:10:48;21.60;99.90
9881;DHT22;4979;51.014;6.678;2023-08-17T09:13:14;21.60;99.90
9881;DHT22;4979;51.014;6.678;2023-08-17T09:15:40;21.60;99.90
9881;DHT22;4979;51.014;6.678;2023-08-17T09:18:05;21.60;99.90
9881;DHT22;4979;51.014;6.678;2023-08-17T09:23:04;21.70;99.90
9881;DHT22;4979;51.014;6.678;2023-08-17T09:25:31;21.70;99.90
9881;DHT22;4979;51.014;6.678;2023-08-17T09:27:59;21.90;99.90
9881;DHT22;4979;51.014;6.678;2023-08-17T09:30:24;21.80;99.90
9881;DHT22;4979;51.014;6.678;2023-08-17T09:32:50;21.90;99.90
9881;DHT22;4979;51.014;6.678;2023-08-17T09:35:15;21.80;99.90
9881;DHT22;4979;51.014;6.678;2023-08-17T09:37:41;22.00;99.90
9881;DHT22;4979;51.014;6.678;2023-08-17T09:40:07;21.90;99.90
9881;DHT22;4979;51.014;6.678;2023-08-17T09:42:38;22.00;99.90
9881;DHT22;4979;51.014;6.678;2023-08-17T09:45:04;22.10;99.90
9881;DHT22;4979;51.014;6.678;2023-08-17T09:47:30;22.20;99.90
9881;DHT22;4979;51.014;6.678;2023-08-17T09:49:55;22.40;99.90
9881;DHT22;4979;51.014;6.678;2023-08-17T09:52:22;22.40;99.90
9881;DHT22;4979;51.014;6.678;2023-08-17T09:54:49;22.40;99.90
9881;DHT22;4979;51.014;6.678;2023-08-17T09:57:15;22.40;99.90
9881;DHT22;4979;51.014;6.678;2023-08-17T09:59:41;22.40;99.90
9881;DHT22;4979;51.014;6.678;2023-08-17T10:02:17;22.30;99.90
9881;DHT22;4979;51.014;6.678;2023-08-17T10:04:53;22.30;99.90
9881;DHT22;4979;51.014;6.678;2023-08-17T10:07:19;22.20;99.90
9881;DHT22;4979;51.014;6.678;2023-08-17T10:09:54;21.70;99.90
9881;DHT22;4979;51.014;6.678;2023-08-17T10:12:23;22.40;99.90
9881;DHT22;4979;51.014;6.678;2023-08-17T10:14:55;22.50;99.90
9881;DHT22;4979;51.014;6.678;2023-08-17T10:17:30;22.30;99.90
9881;DHT22;4979;51.014;6.678;2023-08-17T10:19:59;22.50;99.90
9881;DHT22;4979;51.014;6.678;2023-08-17T10:22:47;22.60;99.90
9881;DHT22;4979;51.014;6.678;2023-08-17T10:25:16;22.60;99.90
9881;DHT22;4979;51.014;6.678;2023-08-17T10:27:42;22.40;99.90
9881;DHT22;4979;51.014;6.678;2023-08-17T10:30:09;22.30;99.90
9881;DHT22;4979;51.014;6.678;2023-08-17T10:32:35;22.20;99.90
9881;DHT22;4979;51.014;6.678;2023-08-17T10:35:02;22.30;99.90
9881;DHT22;4979;51.014;6.678;2023-08-17T10:37:28;22.40;99.90
9881;DHT22;4979;51.014;6.678;2023-08-17T10:39:54;22.20;99.90
9881;DHT22;4979;51.014;6.678;2023-08-17T10:42:33;22.10;99.90
9881;DHT22;4979;51.014;6.678;2023-08-17T10:44:59;22.30;99.90
9881;DHT22;4979;51.014;6.678;2023-08-17T10:47:33;22.30;99.90
9881;DHT22;4979;51.014;6.678;2023-08-17T10:50:10;22.30;99.90
9881;DHT22;4979;51.014;6.678;2023-08-17T10:52:48;22.20;99.90
9881;DHT22;4979;51.014;6.678;2023-08-17T10:55:14;22.00;99.90
9881;DHT22;4979;51.014;6.678;2023-08-17T10:57:43;22.10;99.90
9881;DHT22;4979;51.014;6.678;2023-08-17T11:00:25;22.00;99.90
9881;DHT22;4979;51.014;6.678;2023-08-17T11:03:01;22.20;99.90
9881;DHT22;4979;51.014;6.678;2023-08-17T11:05:47;22.20;99.90
9881;DHT22;4979;51.014;6.678;2023-08-17T11:08:33;22.30;99.90
9881;DHT22;4979;51.014;6.678;2023-08-17T11:11:13;22.30;99.90
9881;DHT22;4979;51.014;6.678;2023-08-17T11:13:44;22.40;99.90
9881;DHT22;4979;51.014;6.678;2023-08-17T11:16:12;22.40;99.90
9881;DHT22;4979;51.014;6.678;2023-08-17T11:18:38;22.30;99.90
9881;DHT22;4979;51.014;6.678;2023-08-17T11:21:05;22.20;99.90
9881;DHT22;4979;51.014;6.678;2023-08-17T11:23:31;22.50;99.90
9881;DHT22;4979;51.014;6.678;2023-08-17T11:25:58;22.60;99.90
9881;DHT22;4979;51.014;6.678;2023-08-17T11:28:24;22.70;99.90
9881;DHT22;4979;51.014;6.678;2023-08-17T11:31:10;22.70;99.90
9881;DHT22;4979;51.014;6.678;2023-08-17T11:33:37;22.80;99.90
9881;DHT22;4979;51.014;6.678;2023-08-17T11:36:07;22.90;99.90
9881;DHT22;4979;51.014;6.678;2023-08-17T11:38:34;22.80;99.90
9881;DHT22;4979;51.014;6.678;2023-08-17T11:41:01;22.80;99.90
9881;DHT22;4979;51.014;6.678;2023-08-17T11:43:28;22.90;99.90
9881;DHT22;4979;51.014;6.678;2023-08-17T11:45:55;23.00;99.90
9881;DHT22;4979;51.014;6.678;2023-08-17T11:48:21;22.90;99.90
9881;DHT22;4979;51.014;6.678;2023-08-17T11:50:47;23.00;99.90
9881;DHT22;4979;51.014;6.678;2023-08-17T11:53:13;23.10;99.90
9881;DHT22;4979;51.014;6.678;2023-08-17T11:55:38;23.10;99.90
9881;DHT22;4979;51.014;6.678;2023-08-17T11:58:04;23.10;99.90
9881;DHT22;4979;51.014;6.678;2023-08-17T12:00:35;23.00;99.90
9881;DHT22;4979;51.014;6.678;2023-08-17T12:03:02;23.00;99.90
9881;DHT22;4979;51.014;6.678;2023-08-17T12:05:31;23.10;99.90
9881;DHT22;4979;51.014;6.678;2023-08-17T12:07:57;23.10;99.90
9881;DHT22;4979;51.014;6.678;2023-08-17T12:10:24;23.20;99.90
9881;DHT22;4979;51.014;6.678;2023-08-17T12:12:52;23.20;99.90
9881;DHT22;4979;51.014;6.678;2023-08-17T12:15:18;23.40;99.90
9881;DHT22;4979;51.014;6.678;2023-08-17T12:17:48;23.40;99.90
9881;DHT22;4979;51.014;6.678;2023-08-17T12:20:20;23.40;99.90
9881;DHT22;4979;51.014;6.678;2023-08-17T12:22:46;23.40;99.90
9881;DHT22;4979;51.014;6.678;2023-08-17T12:25:12;23.10;99.90
9881;DHT22;4979;51.014;6.678;2023-08-17T12:27:38;23.20;99.90
9881;DHT22;4979;51.014;6.678;2023-08-17T12:30:05;23.00;99.90
9881;DHT22;4979;51.014;6.678;2023-08-17T12:32:37;23.00;99.90
9881;DHT22;4979;51.014;6.678;2023-08-17T12:35:03;22.90;99.90
9881;DHT22;4979;51.014;6.678;2023-08-17T12:37:29;22.90;99.90
9881;DHT22;4979;51.014;6.678;2023-08-17T12:39:55;23.00;99.90
9881;DHT22;4979;51.014;6.678;2023-08-17T12:42:21;22.90;99.90
9881;DHT22;4979;51.014;6.678;2023-08-17T12:44:46;22.90;99.90
9881;DHT22;4979;51.014;6.678;2023-08-17T12:47:12;22.90;99.90
9881;DHT22;4979;51.014;6.678;2023-08-17T12:49:37;22.70;99.90
9881;DHT22;4979;51.014;6.678;2023-08-17T12:52:03;22.70;99.90
9881;DHT22;4979;51.014;6.678;2023-08-17T12:54:29;22.50;99.90
9881;DHT22;4979;51.014;6.678;2023-08-17T12:56:54;22.50;99.90
9881;DHT22;4979;51.014;6.678;2023-08-17T12:59:20;22.70;99.90
9881;DHT22;4979;51.014;6.678;2023-08-17T13:01:45;22.90;99.90
9881;DHT22;4979;51.014;6.678;2023-08-17T13:04:11;23.00;99.90
9881;DHT22;4979;51.014;6.678;2023-08-17T13:06:37;23.30;99.90
9881;DHT22;4979;51.014;6.678;2023-08-17T13:09:03;23.30;99.90
9881;DHT22;4979;51.014;6.678;2023-08-17T13:11:28;23.30;99.90
9881;DHT22;4979;51.014;6.678;2023-08-17T13:13:54;23.50;99.90
9881;DHT22;4979;51.014;6.678;2023-08-17T13:16:19;23.40;99.90
9881;DHT22;4979;51.014;6.678;2023-08-17T13:18:48;23.70;99.90
9881;DHT22;4979;51.014;6.678;2023-08-17T13:21:13;23.70;99.90
9881;DHT22;4979;51.014;6.678;2023-08-17T13:23:41;24.00;99.90
9881;DHT22;4979;51.014;6.678;2023-08-17T13:26:06;24.20;99.90
9881;DHT22;4979;51.014;6.678;2023-08-17T13:28:32;24.00;99.90
9881;DHT22;4979;51.014;6.678;2023-08-17T13:30:58;24.00;99.90
9881;DHT22;4979;51.014;6.678;2023-08-17T13:33:23;24.10;99.90
9881;DHT22;4979;51.014;6.678;2023-08-17T13:35:49;24.10;99.90
9881;DHT22;4979;51.014;6.678;2023-08-17T13:38:14;24.20;99.90
9881;DHT22;4979;51.014;6.678;2023-08-17T13:40:40;24.10;99.90
9881;DHT22;4979;51.014;6.678;2023-08-17T13:43:05;24.20;99.90
9881;DHT22;4979;51.014;6.678;2023-08-17T13:45:40;24.20;99.90
9881;DHT22;4979;51.014;6.678;2023-08-17T13:48:08;24.20;99.90
9881;DHT22;4979;51.014;6.678;2023-08-17T13:50:38;24.30;99.90
9881;DHT22;4979;51.014;6.678;2023-08-17T13:53:04;24.30;99.90
9881;DHT22;4979;51.014;6.678;2023-08-17T13:55:30;24.40;99.90
9881;DHT22;4979;51.014;6.678;2023-08-17T13:57:56;24.30;99.90
9881;DHT22;4979;51.014;6.678;2023-08-17T14:00:25;24.40;99.90
9881;DHT22;4979;51.014;6.678;2023-08-17T14:02:52;24.40;99.90
9881;DHT22;4979;51.014;6.678;2023-08-17T14:05:17;24.60;99.90
9881;DHT22;4979;51.014;6.678;2023-08-17T14:07:43;24.80;99.90
9881;DHT22;4979;51.014;6.678;2023-08-17T14:10:09;24.80;99.90
9881;DHT22;4979;51.014;6.678;2023-08-17T14:12:35;24.80;99.90
9881;DHT22;4979;51.014;6.678;2023-08-17T14:15:01;25.00;99.90
9881;DHT22;4979;51.014;6.678;2023-08-17T14:17:26;25.10;99.90
9881;DHT22;4979;51.014;6.678;2023-08-17T14:19:52;25.00;99.90
9881;DHT22;4979;51.014;6.678;2023-08-17T14:22:18;25.10;99.90
9881;DHT22;4979;51.014;6.678;2023-08-17T14:24:44;25.20;99.90
9881;DHT22;4979;51.014;6.678;2023-08-17T14:27:09;25.30;99.90
9881;DHT22;4979;51.014;6.678;2023-08-17T14:29:35;25.50;99.90
9881;DHT22;4979;51.014;6.678;2023-08-17T14:32:00;25.50;99.90
9881;DHT22;4979;51.014;6.678;2023-08-17T14:34:26;25.20;99.90
9881;DHT22;4979;51.014;6.678;2023-08-17T14:36:51;25.30;99.90
9881;DHT22;4979;51.014;6.678;2023-08-17T14:39:17;25.30;99.90
9881;DHT22;4979;51.014;6.678;2023-08-17T14:41:42;25.20;99.90
9881;DHT22;4979;51.014;6.678;2023-08-17T14:44:08;25.10;99.90
9881;DHT22;4979;51.014;6.678;2023-08-17T14:46:34;24.60;99.90
9881;DHT22;4979;51.014;6.678;2023-08-17T14:49:00;24.70;99.90
9881;DHT22;4979;51.014;6.678;2023-08-17T14:51:25;24.80;99.90
9881;DHT22;4979;51.014;6.678;2023-08-17T14:53:51;24.80;99.90
9881;DHT22;4979;51.014;6.678;2023-08-17T14:56:16;24.90;99.90
9881;DHT22;4979;51.014;6.678;2023-08-17T14:58:42;24.90;99.90
9881;DHT22;4979;51.014;6.678;2023-08-17T15:01:07;24.90;99.90
9881;DHT22;4979;51.014;6.678;2023-08-17T15:03:33;24.90;99.90
9881;DHT22;4979;51.014;6.678;2023-08-17T15:05:59;24.90;99.90
9881;DHT22;4979;51.014;6.678;2023-08-17T15:08:24;24.80;99.90
9881;DHT22;4979;51.014;6.678;2023-08-17T15:10:50;24.90;99.90
9881;DHT22;4979;51.014;6.678;2023-08-17T15:13:16;24.90;99.90
9881;DHT22;4979;51.014;6.678;2023-08-17T15:15:45;24.60;99.90
9881;DHT22;4979;51.014;6.678;2023-08-17T15:18:10;24.60;99.90
9881;DHT22;4979;51.014;6.678;2023-08-17T15:20:36;24.70;99.90
9881;DHT22;4979;51.014;6.678;2023-08-17T15:23:01;24.80;99.90
9881;DHT22;4979;51.014;6.678;2023-08-17T15:25:28;24.80;99.90
9881;DHT22;4979;51.014;6.678;2023-08-17T15:27:53;24.80;99.90
9881;DHT22;4979;51.014;6.678;2023-08-17T15:30:19;24.80;99.90
9881;DHT22;4979;51.014;6.678;2023-08-17T15:32:45;24.80;99.90
9881;DHT22;4979;51.014;6.678;2023-08-17T15:35:11;24.80;99.90
9881;DHT22;4979;51.014;6.678;2023-08-17T15:37:40;24.90;99.90
9881;DHT22;4979;51.014;6.678;2023-08-17T15:40:06;24.90;99.90
9881;DHT22;4979;51.014;6.678;2023-08-17T15:42:32;25.00;99.90
9881;DHT22;4979;51.014;6.678;2023-08-17T15:44:58;25.00;99.90
9881;DHT22;4979;51.014;6.678;2023-08-17T15:47:23;25.00;99.90
9881;DHT22;4979;51.014;6.678;2023-08-17T15:49:49;25.00;99.90
9881;DHT22;4979;51.014;6.678;2023-08-17T15:52:15;25.20;99.90
9881;DHT22;4979;51.014;6.678;2023-08-17T15:54:41;25.00;99.90
9881;DHT22;4979;51.014;6.678;2023-08-17T15:57:06;24.80;99.90
9881;DHT22;4979;51.014;6.678;2023-08-17T15:59:32;24.80;99.90
9881;DHT22;4979;51.014;6.678;2023-08-17T16:01:58;24.90;99.90